Time;durP1;ratioP1;P1;durP2;ratioP2;P2;SDS_P1;SDS_P2;PMS_P1;PMS_P2;Temp;Humidity;BMP_temperature;BMP_pressure;BME280_temperature;BME280_humidity;BME280_pressure;Samples;Min_cycle;Max_cycle;Signal;HPM_P1;HPM_P2
2021/05/08 00:02:08;;;;;;;12.88;6.57;;;3.20;99.90;;;;;;4986643;28;20463;-75
2021/05/08 00:04:34;;;;;;;10.57;7.38;;;3.10;99.90;;;;;;4983339;28;20030;-74
2021/05/08 00:06:59;;;;;;;9.73;6.30;;;3.20;99.90;;;;;;4999214;28;20022;-74
2021/05/08 00:09:26;;;;;;;9.75;6.90;;;3.10;99.90;;;;;;4982514;28;20030;-70
2021/05/08 00:11:55;;;;;;;9.40;7.15;;;3.10;99.90;;;;;;4981895;28;20110;-74
2021/05/08 00:14:21;;;;;;;12.65;7.07;;;3.10;99.90;;;;;;5001168;28;20022;-75
2021/05/08 00:16:47;;;;;;;10.35;7.63;;;3.10;99.90;;;;;;4982793;28;20026;-76
2021/05/08 00:19:12;;;;;;;9.60;6.50;;;3.10;99.90;;;;;;5002109;28;20026;-76
2021/05/08 00:21:38;;;;;;;9.52;7.07;;;3.00;99.90;;;;;;5002517;28;20061;-75
2021/05/08 00:24:05;;;;;;;9.00;6.60;;;3.00;99.90;;;;;;5003753;28;20109;-76
2021/05/08 00:26:30;;;;;;;9.90;6.90;;;3.00;99.90;;;;;;4986687;28;20143;-76
2021/05/08 00:28:57;;;;;;;7.72;5.97;;;2.90;99.90;;;;;;5002899;28;20834;-76
2021/05/08 00:31:23;;;;;;;10.18;6.57;;;2.90;99.90;;;;;;5011608;28;20030;-70
2021/05/08 00:33:49;;;;;;;12.95;7.97;;;2.90;99.90;;;;;;5014935;28;20064;-77
2021/05/08 00:36:15;;;;;;;9.27;7.03;;;2.90;99.90;;;;;;4975732;28;20111;-76
2021/05/08 00:38:40;;;;;;;10.88;7.35;;;2.80;99.90;;;;;;4960751;28;20448;-76
2021/05/08 00:41:06;;;;;;;11.90;6.88;;;2.80;99.90;;;;;;4977768;28;20034;-76
2021/05/08 00:43:32;;;;;;;9.18;6.75;;;2.80;99.90;;;;;;4994208;28;20041;-76
2021/05/08 00:45:58;;;;;;;10.13;6.47;;;2.80;99.90;;;;;;4977781;28;20084;-75
2021/05/08 00:48:27;;;;;;;10.55;7.47;;;2.90;99.90;;;;;;4977063;28;20382;-71
2021/05/08 00:50:53;;;;;;;11.05;7.05;;;2.70;99.90;;;;;;4997918;28;20022;-76
2021/05/08 00:53:19;;;;;;;9.32;7.38;;;2.70;99.90;;;;;;5014347;28;20056;-76
2021/05/08 00:55:45;;;;;;;10.10;6.80;;;2.60;99.90;;;;;;5013767;28;20109;-76
2021/05/08 00:58:10;;;;;;;12.75;7.70;;;2.60;99.90;;;;;;5014655;28;20373;-76
2021/05/08 01:00:37;;;;;;;10.70;7.05;;;2.60;99.90;;;;;;5013545;28;20139;-75
2021/05/08 01:03:05;;;;;;;11.32;7.35;;;2.60;99.90;;;;;;4996966;28;20438;-75
2021/05/08 01:05:32;;;;;;;9.27;6.00;;;2.60;99.90;;;;;;4979677;28;20033;-75
2021/05/08 01:08:02;;;;;;;9.98;6.35;;;2.60;99.90;;;;;;5009182;28;20018;-74
2021/05/08 01:10:29;;;;;;;7.90;6.13;;;2.60;99.90;;;;;;4994800;28;20030;-73
2021/05/08 01:12:57;;;;;;;10.18;6.82;;;2.60;99.90;;;;;;4994485;28;20439;-75
2021/05/08 01:15:23;;;;;;;7.82;6.40;;;2.60;99.90;;;;;;4977158;28;20395;-76
2021/05/08 01:17:48;;;;;;;8.55;6.50;;;2.60;99.90;;;;;;5012807;28;20112;-76
2021/05/08 01:20:15;;;;;;;8.10;6.10;;;2.60;99.90;;;;;;5014141;28;20062;-75
2021/05/08 01:22:41;;;;;;;9.27;6.60;;;2.60;99.90;;;;;;5012975;28;20498;-76
2021/05/08 01:25:11;;;;;;;9.63;6.00;;;2.60;99.90;;;;;;4996171;28;20030;-76
2021/05/08 01:27:45;;;;;;;11.20;6.10;;;2.60;99.90;;;;;;4995701;28;20030;-76
2021/05/08 01:30:12;;;;;;;10.00;6.35;;;2.60;99.90;;;;;;4993292;28;20136;-76
2021/05/08 01:32:38;;;;;;;8.68;5.93;;;2.60;99.90;;;;;;5012646;28;20427;-76
2021/05/08 01:35:04;;;;;;;7.40;5.22;;;2.60;99.90;;;;;;5013577;28;20117;-76
2021/05/08 01:37:29;;;;;;;11.50;5.97;;;2.60;99.90;;;;;;4995439;28;20034;-74
2021/05/08 01:39:55;;;;;;;7.80;5.70;;;2.60;99.90;;;;;;4995961;28;20034;-73
2021/05/08 01:42:21;;;;;;;7.72;4.90;;;2.50;99.90;;;;;;5013769;28;20029;-75
2021/05/08 01:44:46;;;;;;;7.07;6.00;;;2.50;99.90;;;;;;4995130;28;20048;-77
2021/05/08 01:47:12;;;;;;;8.63;6.10;;;2.50;99.90;;;;;;4995948;28;20036;-76
2021/05/08 01:49:38;;;;;;;10.00;6.38;;;2.40;99.90;;;;;;4995082;28;20119;-76
2021/05/08 01:52:03;;;;;;;8.05;6.22;;;2.40;99.90;;;;;;4995663;28;20030;-77
2021/05/08 01:54:29;;;;;;;9.13;6.50;;;2.40;99.90;;;;;;5012687;28;20120;-75
2021/05/08 01:56:54;;;;;;;9.57;6.47;;;2.40;99.90;;;;;;4995708;28;20026;-75
2021/05/08 01:59:20;;;;;;;8.25;5.75;;;2.40;99.90;;;;;;4995773;28;20034;-76
2021/05/08 02:01:46;;;;;;;9.52;6.60;;;2.40;99.90;;;;;;4994849;28;20598;-76
2021/05/08 02:04:11;;;;;;;9.68;6.20;;;2.40;99.90;;;;;;4995254;28;20438;-77
2021/05/08 02:06:37;;;;;;;8.45;5.95;;;2.40;99.90;;;;;;5012172;28;20060;-72
2021/05/08 02:09:06;;;;;;;9.65;6.30;;;2.40;99.90;;;;;;4995690;28;20473;-76
2021/05/08 02:11:32;;;;;;;9.75;6.28;;;2.30;99.90;;;;;;5012418;28;20038;-75
2021/05/08 02:13:58;;;;;;;9.25;6.07;;;2.30;99.90;;;;;;5013136;28;20036;-75
2021/05/08 02:16:23;;;;;;;9.85;6.32;;;2.20;99.90;;;;;;5013105;28;20095;-76
2021/05/08 02:18:49;;;;;;;10.32;7.10;;;2.20;99.90;;;;;;4994209;28;20434;-77
2021/05/08 02:21:15;;;;;;;8.75;6.40;;;2.20;99.90;;;;;;5012393;28;20135;-76
2021/05/08 02:23:40;;;;;;;9.85;6.50;;;2.20;99.90;;;;;;5010232;28;20049;-73
2021/05/08 02:26:06;;;;;;;10.98;6.18;;;2.20;99.90;;;;;;4994833;28;20121;-76
2021/05/08 02:28:32;;;;;;;6.80;5.22;;;2.10;99.90;;;;;;4996391;28;20027;-75
2021/05/08 02:30:57;;;;;;;10.45;5.72;;;2.10;99.90;;;;;;5032414;28;20030;-75
2021/05/08 02:33:23;;;;;;;7.22;5.88;;;2.00;99.90;;;;;;5023094;28;20441;-76
2021/05/08 02:35:49;;;;;;;10.30;7.13;;;1.90;99.90;;;;;;4994179;28;20839;-77
2021/05/08 02:38:15;;;;;;;9.55;6.18;;;1.90;99.90;;;;;;4995140;28;20053;-76
2021/05/08 02:40:40;;;;;;;8.07;5.95;;;1.90;99.90;;;;;;5011941;28;20030;-75
2021/05/08 02:43:09;;;;;;;6.95;5.88;;;1.90;99.90;;;;;;4994125;28;20025;-76
2021/05/08 02:45:35;;;;;;;8.40;6.32;;;1.90;99.90;;;;;;4994318;28;20112;-74
2021/05/08 02:48:01;;;;;;;10.13;6.22;;;1.80;99.90;;;;;;4994919;28;20026;-74
2021/05/08 02:50:26;;;;;;;8.32;6.65;;;1.80;99.90;;;;;;5012264;28;20029;-69
2021/05/08 02:52:52;;;;;;;8.50;6.43;;;1.80;99.90;;;;;;5011240;28;20450;-76
2021/05/08 02:55:18;;;;;;;8.02;5.88;;;1.80;99.90;;;;;;5012286;28;20030;-76
2021/05/08 02:57:44;;;;;;;9.13;6.85;;;1.80;99.90;;;;;;4994067;28;20065;-75
2021/05/08 03:00:15;;;;;;;9.38;6.95;;;1.80;99.90;;;;;;4994819;28;20391;-75
2021/05/08 03:02:41;;;;;;;7.63;5.97;;;1.80;99.90;;;;;;4993920;28;20427;-75
2021/05/08 03:05:08;;;;;;;9.77;6.72;;;1.70;99.90;;;;;;5011824;28;20033;-76
2021/05/08 03:07:34;;;;;;;10.50;6.68;;;1.70;99.90;;;;;;5011223;28;20123;-74
2021/05/08 03:10:00;;;;;;;8.50;5.68;;;1.70;99.90;;;;;;5012612;28;20029;-76
2021/05/08 03:12:26;;;;;;;8.25;6.05;;;1.70;99.90;;;;;;4994632;28;20030;-74
2021/05/08 03:14:51;;;;;;;8.68;6.72;;;1.70;99.90;;;;;;4993435;28;20052;-75
2021/05/08 03:17:17;;;;;;;8.15;6.07;;;1.70;99.90;;;;;;5017433;28;20037;-76
2021/05/08 03:19:43;;;;;;;8.82;6.15;;;1.70;99.90;;;;;;4992511;28;20129;-75
2021/05/08 03:22:08;;;;;;;11.05;6.80;;;1.60;99.90;;;;;;5011536;28;20034;-76
2021/05/08 03:24:34;;;;;;;9.10;6.80;;;1.60;99.90;;;;;;5011291;28;20045;-77
2021/05/08 03:27:01;;;;;;;11.40;6.68;;;1.60;99.90;;;;;;5011891;28;20041;-76
2021/05/08 03:29:27;;;;;;;11.15;6.47;;;1.60;99.90;;;;;;4994432;28;20022;-75
2021/05/08 03:31:54;;;;;;;8.63;6.57;;;1.60;99.90;;;;;;4993823;28;20030;-78
2021/05/08 03:34:20;;;;;;;8.93;5.82;;;1.60;99.90;;;;;;4994359;28;20026;-74
2021/05/08 03:36:45;;;;;;;9.20;6.15;;;1.60;99.90;;;;;;5011114;28;20479;-77
2021/05/08 03:39:11;;;;;;;9.48;6.10;;;1.50;99.90;;;;;;4994341;28;20040;-77
2021/05/08 03:41:37;;;;;;;6.78;5.18;;;1.50;99.90;;;;;;5011206;28;20026;-75
2021/05/08 03:44:03;;;;;;;9.27;6.28;;;1.50;99.90;;;;;;5011972;28;20088;-74
2021/05/08 03:46:29;;;;;;;8.77;5.80;;;1.50;99.90;;;;;;5011501;28;20049;-68
2021/05/08 03:48:54;;;;;;;10.32;6.35;;;1.50;99.90;;;;;;4993870;28;20475;-77
2021/05/08 03:51:24;;;;;;;7.30;5.57;;;1.50;99.90;;;;;;4993887;28;20030;-77
2021/05/08 03:53:51;;;;;;;6.80;5.38;;;1.60;99.90;;;;;;5013236;28;20158;-77
2021/05/08 03:56:17;;;;;;;7.35;5.47;;;1.60;99.90;;;;;;5028228;28;20475;-77
2021/05/08 03:58:43;;;;;;;8.20;5.65;;;1.60;99.90;;;;;;5003678;28;20080;-77
2021/05/08 04:01:08;;;;;;;7.13;5.40;;;1.60;99.90;;;;;;4997968;28;20041;-77
2021/05/08 04:03:34;;;;;;;8.40;5.53;;;1.60;99.90;;;;;;4997230;28;20026;-76
2021/05/08 04:06:00;;;;;;;9.13;6.45;;;1.60;99.90;;;;;;4994122;28;20076;-77
2021/05/08 04:08:25;;;;;;;8.63;5.57;;;1.60;99.90;;;;;;4995899;28;20034;-77
2021/05/08 04:10:51;;;;;;;8.45;5.30;;;1.60;99.90;;;;;;4994774;28;20034;-77
2021/05/08 04:13:18;;;;;;;8.20;5.65;;;1.70;99.90;;;;;;5005149;28;20033;-72
2021/05/08 04:15:44;;;;;;;10.20;5.75;;;1.70;99.90;;;;;;4996851;28;20475;-77
2021/05/08 04:18:11;;;;;;;7.25;5.60;;;1.70;99.90;;;;;;4997649;28;20026;-77
2021/05/08 04:20:37;;;;;;;9.63;6.10;;;1.80;99.90;;;;;;5014240;28;20038;-76
2021/05/08 04:23:04;;;;;;;8.73;5.50;;;1.80;99.90;;;;;;4997230;28;20501;-76
2021/05/08 04:25:29;;;;;;;6.68;5.05;;;1.90;99.90;;;;;;5014842;28;20033;-70
2021/05/08 04:27:56;;;;;;;6.60;5.45;;;1.90;99.90;;;;;;4996998;28;20433;-77
2021/05/08 04:30:22;;;;;;;10.73;5.65;;;2.00;99.90;;;;;;4997635;28;20030;-77
2021/05/08 04:32:47;;;;;;;8.43;4.97;;;2.00;99.90;;;;;;5014235;28;20356;-76
2021/05/08 04:35:16;;;;;;;10.18;5.82;;;2.10;99.90;;;;;;5015472;28;20061;-76
2021/05/08 04:37:42;;;;;;;10.68;5.93;;;2.10;99.90;;;;;;4996387;28;20038;-77
2021/05/08 04:40:09;;;;;;;14.65;7.10;;;2.20;99.90;;;;;;5014715;28;20483;-77
2021/05/08 04:42:34;;;;;;;16.67;6.13;;;2.30;99.90;;;;;;5013808;28;20109;-76
2021/05/08 04:45:01;;;;;;;10.88;6.50;;;2.40;99.90;;;;;;5014691;28;20439;-76
2021/05/08 04:47:27;;;;;;;11.15;6.28;;;2.50;99.90;;;;;;5014748;28;20036;-77
2021/05/08 04:49:57;;;;;;;9.82;5.55;;;2.50;99.90;;;;;;5013932;28;20100;-77
2021/05/08 04:52:23;;;;;;;8.98;5.40;;;2.60;99.90;;;;;;4996436;28;20068;-77
2021/05/08 04:54:49;;;;;;;11.82;6.03;;;2.60;99.90;;;;;;4996269;28;20030;-77
2021/05/08 04:57:14;;;;;;;10.82;5.60;;;2.70;99.90;;;;;;4997074;28;20459;-77
2021/05/08 04:59:40;;;;;;;8.00;5.10;;;2.70;99.90;;;;;;5013486;28;20045;-77
2021/05/08 05:02:06;;;;;;;11.23;6.60;;;2.80;99.90;;;;;;4996868;28;20113;-77
2021/05/08 05:04:31;;;;;;;11.50;6.20;;;2.80;99.90;;;;;;4995555;28;20030;-71
2021/05/08 05:06:57;;;;;;;12.00;6.35;;;2.90;99.90;;;;;;5004239;28;20023;-77
2021/05/08 05:09:23;;;;;;;12.90;7.43;;;3.00;99.90;;;;;;5011166;28;20038;-77
2021/05/08 05:11:50;;;;;;;10.57;6.45;;;3.10;99.90;;;;;;4995901;28;20026;-77
2021/05/08 05:14:17;;;;;;;11.80;6.78;;;3.20;99.90;;;;;;5014226;28;20025;-77
2021/05/08 05:16:42;;;;;;;8.48;5.70;;;3.40;99.90;;;;;;4995800;28;20121;-78
2021/05/08 05:19:08;;;;;;;8.40;5.43;;;3.50;99.90;;;;;;4996345;28;20105;-77
2021/05/08 05:21:34;;;;;;;9.07;5.53;;;3.70;99.90;;;;;;5026853;28;20038;-70
2021/05/08 05:24:00;;;;;;;7.40;6.20;;;3.80;99.90;;;;;;5001124;28;20116;-76
2021/05/08 05:26:26;;;;;;;8.10;5.18;;;3.90;99.90;;;;;;5014049;28;20049;-77
2021/05/08 05:28:52;;;;;;;8.93;5.43;;;4.00;99.90;;;;;;4995660;28;20638;-77
2021/05/08 05:31:18;;;;;;;9.07;5.70;;;4.10;99.90;;;;;;4986498;28;20126;-77
2021/05/08 05:33:44;;;;;;;10.55;6.03;;;4.20;99.90;;;;;;4993079;28;20432;-75
2021/05/08 05:36:09;;;;;;;9.52;6.13;;;4.40;99.90;;;;;;4960745;28;20026;-76
2021/05/08 05:38:35;;;;;;;8.15;5.70;;;4.60;97.40;;;;;;4993298;28;20038;-71
2021/05/08 05:41:01;;;;;;;9.13;5.47;;;4.80;97.20;;;;;;4976547;28;20034;-78
2021/05/08 05:43:27;;;;;;;7.07;5.65;;;4.90;97.00;;;;;;4976573;28;20089;-78
2021/05/08 05:45:55;;;;;;;7.90;5.93;;;5.00;97.80;;;;;;5005623;28;20344;-76
2021/05/08 05:48:24;;;;;;;7.75;5.18;;;5.10;97.90;;;;;;5014176;28;20076;-77
2021/05/08 05:50:54;;;;;;;8.27;6.05;;;5.30;97.30;;;;;;5016629;28;20460;-76
2021/05/08 05:53:23;;;;;;;7.20;4.90;;;5.40;95.90;;;;;;5007423;28;20514;-75
2021/05/08 05:55:51;;;;;;;5.93;4.38;;;5.60;91.40;;;;;;4996991;28;20072;-76
2021/05/08 05:58:20;;;;;;;6.10;4.63;;;5.80;88.20;;;;;;4997163;28;20109;-76
2021/05/08 06:00:50;;;;;;;6.95;4.78;;;6.00;86.90;;;;;;4987760;28;20030;-76
2021/05/08 06:03:20;;;;;;;8.10;4.68;;;6.20;86.20;;;;;;4996459;28;20030;-74
2021/05/08 06:05:46;;;;;;;6.22;4.72;;;6.30;84.60;;;;;;4992924;28;20023;-75
2021/05/08 06:08:12;;;;;;;11.50;5.25;;;6.30;85.90;;;;;;4956964;28;20042;-74
2021/05/08 06:10:40;;;;;;;6.90;4.55;;;6.50;84.20;;;;;;4976352;28;20027;-75
2021/05/08 06:13:09;;;;;;;6.53;4.90;;;6.60;83.40;;;;;;4977548;28;20026;-74
2021/05/08 06:15:39;;;;;;;8.27;5.10;;;6.60;83.90;;;;;;4959423;28;20031;-74
2021/05/08 06:18:08;;;;;;;4.82;3.83;;;6.70;82.50;;;;;;4976623;28;20415;-77
2021/05/08 06:20:36;;;;;;;6.30;4.00;;;6.80;81.50;;;;;;4957803;28;20030;-80
2021/05/08 06:23:05;;;;;;;7.55;3.80;;;6.90;81.10;;;;;;4976986;28;20038;-77
2021/05/08 06:25:34;;;;;;;5.85;4.53;;;7.00;79.50;;;;;;4975902;28;20054;-75
2021/05/08 06:28:00;;;;;;;6.10;4.53;;;7.20;78.70;;;;;;4966537;28;20031;-74
2021/05/08 06:30:28;;;;;;;10.27;5.40;;;7.40;77.90;;;;;;4986651;28;20029;-77
2021/05/08 06:32:56;;;;;;;8.90;5.25;;;7.60;76.30;;;;;;4994055;28;20055;-76
2021/05/08 06:35:25;;;;;;;7.60;4.82;;;7.80;76.00;;;;;;4968469;28;20114;-78
2021/05/08 06:37:53;;;;;;;5.80;4.68;;;7.90;75.20;;;;;;4987946;28;20053;-78
2021/05/08 06:40:21;;;;;;;6.35;4.20;;;7.90;74.30;;;;;;4968889;28;20117;-76
2021/05/08 06:42:50;;;;;;;6.57;4.60;;;8.00;76.00;;;;;;4983226;28;20084;-78
2021/05/08 06:45:18;;;;;;;8.73;4.53;;;8.10;75.40;;;;;;4994555;28;20030;-70
2021/05/08 06:47:51;;;;;;;7.13;5.20;;;8.30;74.00;;;;;;4999033;28;20105;-79
2021/05/08 06:50:17;;;;;;;8.90;4.53;;;8.40;73.60;;;;;;4959252;28;20030;-72
2021/05/08 06:52:44;;;;;;;5.45;4.28;;;8.60;73.20;;;;;;4990960;28;20041;-82
2021/05/08 06:55:12;;;;;;;6.90;4.93;;;8.70;72.40;;;;;;4996350;28;20372;-74
2021/05/08 06:57:38;;;;;;;11.77;5.10;;;8.90;72.00;;;;;;4998011;28;20027;-72
2021/05/08 07:00:05;;;;;;;5.60;4.07;;;9.10;70.10;;;;;;5001891;28;20081;-78
2021/05/08 07:02:30;;;;;;;7.32;3.80;;;9.20;69.50;;;;;;5000133;28;20019;-77
2021/05/08 07:04:56;;;;;;;3.70;2.92;;;9.30;68.40;;;;;;4996709;28;20159;-79
2021/05/08 07:07:22;;;;;;;6.18;3.17;;;9.50;67.90;;;;;;5007374;28;20034;-75
2021/05/08 07:09:47;;;;;;;5.72;3.30;;;9.60;65.60;;;;;;5011374;28;20034;-74
2021/05/08 07:12:13;;;;;;;5.22;3.20;;;9.80;65.10;;;;;;4978396;28;20493;-73
2021/05/08 07:14:39;;;;;;;3.47;2.50;;;10.00;64.30;;;;;;5011404;28;20048;-74
2021/05/08 07:17:04;;;;;;;3.85;2.83;;;10.20;64.80;;;;;;4994404;28;20061;-75
2021/05/08 07:19:30;;;;;;;3.35;2.58;;;10.30;64.10;;;;;;4994373;28;20486;-77
2021/05/08 07:21:58;;;;;;;5.63;2.78;;;10.40;63.30;;;;;;5011297;28;20030;-76
2021/05/08 07:24:24;;;;;;;4.68;2.53;;;10.60;63.80;;;;;;5011246;28;20128;-76
2021/05/08 07:26:50;;;;;;;3.92;2.38;;;10.80;61.90;;;;;;4986700;28;20117;-76
2021/05/08 07:29:18;;;;;;;4.03;2.30;;;11.00;61.70;;;;;;5011555;28;20110;-75
2021/05/08 07:31:44;;;;;;;3.55;2.15;;;11.10;60.50;;;;;;4999917;28;20463;-74
2021/05/08 07:34:09;;;;;;;2.30;2.03;;;11.30;59.20;;;;;;5018812;28;20032;-75
2021/05/08 07:36:35;;;;;;;3.97;2.10;;;11.50;57.90;;;;;;5018092;28;20037;-75
2021/05/08 07:39:01;;;;;;;3.70;2.17;;;11.70;58.30;;;;;;4999617;28;20067;-74
2021/05/08 07:41:27;;;;;;;2.53;1.73;;;11.90;57.30;;;;;;5005563;28;20039;-73
2021/05/08 07:43:52;;;;;;;4.28;2.17;;;12.00;56.90;;;;;;4997958;28;20019;-75
2021/05/08 07:46:18;;;;;;;2.38;2.17;;;12.20;57.00;;;;;;4998886;28;20026;-82
2021/05/08 07:48:44;;;;;;;4.43;2.63;;;12.30;57.20;;;;;;4997485;28;20467;-80
2021/05/08 07:51:10;;;;;;;2.47;2.05;;;12.30;57.00;;;;;;5017481;28;20545;-81
2021/05/08 07:53:36;;;;;;;4.85;2.60;;;12.30;57.50;;;;;;4999990;28;20053;-80
2021/05/08 07:56:02;;;;;;;3.65;2.35;;;12.50;57.90;;;;;;5006728;28;20111;-80
2021/05/08 07:58:27;;;;;;;3.75;2.42;;;12.50;57.70;;;;;;4998130;28;20081;-80
2021/05/08 08:00:53;;;;;;;2.60;2.35;;;12.50;57.60;;;;;;4964403;28;20097;-79
2021/05/08 08:03:19;;;;;;;4.93;2.40;;;12.50;57.60;;;;;;4998678;28;20032;-78
2021/05/08 08:05:45;;;;;;;2.80;2.38;;;12.50;57.10;;;;;;4979803;28;20031;-79
2021/05/08 08:08:10;;;;;;;3.28;2.45;;;12.60;57.30;;;;;;4998593;28;20026;-80
2021/05/08 08:10:36;;;;;;;4.32;2.28;;;12.70;56.70;;;;;;4984811;28;20383;-79
2021/05/08 08:13:02;;;;;;;4.28;2.17;;;12.70;57.40;;;;;;5000865;28;20069;-78
2021/05/08 08:15:28;;;;;;;4.65;3.05;;;12.80;56.70;;;;;;4980499;28;20033;-79
2021/05/08 08:17:53;;;;;;;2.60;2.40;;;12.90;56.30;;;;;;4997546;28;20057;-80
2021/05/08 08:20:19;;;;;;;2.97;2.13;;;13.00;56.20;;;;;;5012787;28;20038;-78
2021/05/08 08:22:45;;;;;;;5.38;2.05;;;13.10;55.70;;;;;;5018796;28;20392;-75
2021/05/08 08:25:12;;;;;;;7.25;2.50;;;13.20;56.10;;;;;;4997324;28;20018;-77
2021/05/08 08:27:39;;;;;;;3.75;2.30;;;13.30;55.60;;;;;;4998246;28;20037;-71
2021/05/08 08:30:08;;;;;;;2.65;2.17;;;13.30;54.30;;;;;;4999036;28;20109;-76
2021/05/08 08:32:33;;;;;;;3.03;2.40;;;13.40;54.20;;;;;;5004830;28;20463;-77
2021/05/08 08:34:59;;;;;;;4.63;2.50;;;13.50;53.40;;;;;;5004746;28;20034;-77
2021/05/08 08:37:25;;;;;;;3.72;2.08;;;13.60;53.70;;;;;;4990061;28;20018;-79
2021/05/08 08:39:50;;;;;;;3.15;2.20;;;13.70;53.10;;;;;;4986503;28;20044;-77
2021/05/08 08:42:17;;;;;;;4.70;2.08;;;13.90;53.10;;;;;;4985079;28;20021;-76
2021/05/08 08:44:43;;;;;;;3.25;1.83;;;14.10;51.20;;;;;;4982945;28;20392;-71
2021/05/08 08:50:00;;;;;;;3.35;1.60;;;14.40;51.90;;;;;;5003038;28;20124;-72
2021/05/08 08:52:28;;;;;;;3.25;1.77;;;14.60;48.00;;;;;;4983088;28;20515;-75
2021/05/08 08:54:57;;;;;;;2.63;1.55;;;14.80;46.80;;;;;;5001528;28;20109;-74
2021/05/08 08:57:37;;;;;;;2.53;1.60;;;15.00;46.90;;;;;;5001897;28;20022;-75
2021/05/08 09:00:11;;;;;;;2.80;1.60;;;15.20;48.10;;;;;;5000270;28;20505;-78
2021/05/08 09:02:37;;;;;;;3.97;1.95;;;15.50;46.90;;;;;;4995402;28;20356;-78
2021/05/08 09:05:03;;;;;;;1.55;1.30;;;15.50;47.10;;;;;;4995749;28;20025;-74
2021/05/08 09:07:30;;;;;;;2.83;1.52;;;15.70;46.30;;;;;;4997800;28;20388;-72
2021/05/08 09:09:56;;;;;;;2.63;1.70;;;15.90;46.60;;;;;;4994852;28;20045;-76
2021/05/08 09:12:27;;;;;;;4.32;1.60;;;16.10;45.70;;;;;;4994145;28;20136;-81
2021/05/08 09:14:54;;;;;;;2.30;1.65;;;16.10;45.30;;;;;;4975922;28;20027;-76
2021/05/08 09:17:25;;;;;;;3.47;1.73;;;16.10;45.90;;;;;;4993721;28;20427;-72
2021/05/08 09:19:59;;;;;;;4.18;1.60;;;16.10;46.00;;;;;;4993493;28;20046;-72
2021/05/08 09:22:35;;;;;;;2.10;1.77;;;16.20;47.30;;;;;;4994182;28;20464;-73
2021/05/08 09:25:09;;;;;;;3.42;1.60;;;16.30;46.10;;;;;;4975497;28;20576;-71
2021/05/08 09:27:36;;;;;;;3.05;2.17;;;16.30;46.10;;;;;;4976579;28;20085;-72
2021/05/08 09:30:19;;;;;;;2.35;1.50;;;16.20;46.60;;;;;;4993201;28;20065;-73
2021/05/08 09:32:46;;;;;;;2.80;1.70;;;16.30;46.80;;;;;;4975958;28;20498;-72
2021/05/08 09:35:16;;;;;;;4.10;2.10;;;16.30;46.90;;;;;;4996007;28;20108;-74
2021/05/08 09:37:42;;;;;;;3.03;2.00;;;16.30;46.20;;;;;;4997611;28;20030;-71
2021/05/08 09:40:26;;;;;;;4.47;1.85;;;16.40;46.80;;;;;;5013026;28;20300;-74
2021/05/08 09:42:56;;;;;;;4.15;1.80;;;16.60;45.80;;;;;;5012361;28;20546;-77
2021/05/08 09:45:24;;;;;;;2.28;1.20;;;16.70;46.40;;;;;;5013122;28;20493;-76
2021/05/08 09:47:50;;;;;;;5.60;1.88;;;16.70;45.70;;;;;;4995831;28;20026;-77
2021/05/08 09:50:23;;;;;;;2.45;1.63;;;16.70;44.80;;;;;;4996459;28;20041;-76
2021/05/08 09:52:58;;;;;;;3.42;1.83;;;16.70;45.90;;;;;;5012908;28;20046;-80
2021/05/08 09:55:24;;;;;;;2.92;1.80;;;16.70;44.70;;;;;;4990269;28;20026;-76
2021/05/08 09:58:09;;;;;;;1.85;1.10;;;16.70;45.00;;;;;;4992619;28;20022;-78
2021/05/08 10:00:37;;;;;;;2.22;1.38;;;16.90;46.10;;;;;;4993556;28;20173;-77
2021/05/08 10:03:16;;;;;;;4.00;1.70;;;17.10;44.10;;;;;;4992666;28;20034;-77
2021/05/08 10:06:02;;;;;;;1.67;1.30;;;17.20;42.00;;;;;;4976317;28;20037;-72
2021/05/08 10:08:28;;;;;;;1.20;1.08;;;17.20;42.10;;;;;;4979904;28;20161;-82
2021/05/08 10:10:55;;;;;;;2.92;1.40;;;17.40;42.20;;;;;;4993918;28;20069;-79
2021/05/08 10:13:21;;;;;;;3.28;1.30;;;17.60;42.70;;;;;;4993299;28;20536;-80
2021/05/08 10:15:48;;;;;;;1.85;1.35;;;17.70;43.70;;;;;;4975047;28;20157;-78
2021/05/08 10:18:14;;;;;;;4.45;1.42;;;17.80;41.50;;;;;;4994347;28;20109;-79
2021/05/08 10:20:42;;;;;;;2.95;1.50;;;17.90;41.80;;;;;;4993808;28;20041;-79
2021/05/08 10:23:12;;;;;;;2.63;1.55;;;17.80;42.10;;;;;;4993198;28;20165;-79
2021/05/08 10:25:41;;;;;;;2.17;1.55;;;17.80;42.90;;;;;;4975858;28;20023;-79
2021/05/08 10:28:08;;;;;;;3.23;1.77;;;18.00;43.40;;;;;;4976478;28;20523;-79
2021/05/08 10:30:37;;;;;;;4.05;1.48;;;18.00;42.40;;;;;;4993309;28;20057;-79
2021/05/08 10:33:08;;;;;;;5.55;1.65;;;18.00;42.80;;;;;;4989829;28;20073;-80
2021/05/08 10:35:51;;;;;;;3.17;1.40;;;18.00;42.30;;;;;;4995780;28;20033;-76
2021/05/08 10:38:22;;;;;;;1.83;1.17;;;18.00;42.30;;;;;;5012549;28;20028;-77
2021/05/08 10:40:48;;;;;;;2.28;1.20;;;18.10;41.70;;;;;;5012147;28;20052;-77
2021/05/08 10:43:54;;;;;;;2.22;1.38;;;18.30;41.30;;;;;;4994653;28;20479;-77
2021/05/08 10:46:22;;;;;;;3.45;1.45;;;18.40;40.50;;;;;;5012533;28;20037;-79
2021/05/08 10:49:09;;;;;;;1.73;1.48;;;18.70;40.20;;;;;;5013065;28;20025;-80
2021/05/08 10:51:59;;;;;;;1.23;1.10;;;18.80;39.60;;;;;;5013127;28;20117;-76
2021/05/08 10:54:37;;;;;;;4.43;1.10;;;19.00;40.10;;;;;;5002140;28;20058;-77
2021/05/08 10:57:23;;;;;;;2.50;1.08;;;19.20;39.00;;;;;;5013940;28;20174;-79
2021/05/08 11:00:07;;;;;;;1.73;0.90;;;19.30;38.60;;;;;;4995068;28;20080;-73
2021/05/08 11:02:45;;;;;;;1.45;1.17;;;19.50;39.20;;;;;;5011210;28;20026;-77
2021/05/08 11:05:28;;;;;;;3.10;1.08;;;19.80;36.80;;;;;;5011653;28;20105;-75
2021/05/08 11:07:54;;;;;;;1.63;0.90;;;19.90;36.40;;;;;;4993145;28;20029;-76
2021/05/08 11:10:35;;;;;;;1.88;1.20;;;19.90;36.60;;;;;;4994471;28;20383;-76
2021/05/08 11:13:09;;;;;;;2.70;1.30;;;19.90;36.10;;;;;;5011200;28;20026;-76
2021/05/08 11:15:56;;;;;;;1.80;1.10;;;19.90;36.30;;;;;;5011626;28;20048;-74
2021/05/08 11:18:45;;;;;;;1.65;0.88;;;19.90;36.10;;;;;;4994013;28;20026;-76
2021/05/08 11:21:11;;;;;;;1.73;0.90;;;20.10;35.90;;;;;;5011615;28;20044;-78
2021/05/08 11:23:50;;;;;;;2.92;1.13;;;20.10;35.40;;;;;;4993969;28;20034;-73
2021/05/08 11:26:25;;;;;;;0.93;0.93;;;20.10;36.40;;;;;;4990787;28;20033;-73
2021/05/08 11:28:58;;;;;;;1.42;1.02;;;20.40;36.40;;;;;;5010828;28;20030;-76
2021/05/08 11:31:24;;;;;;;1.85;1.27;;;20.50;49.00;;;;;;5011594;28;20356;-75
2021/05/08 11:33:50;;;;;;;2.25;0.82;;;20.40;48.00;;;;;;4993193;28;20077;-73
2021/05/08 11:36:17;;;;;;;4.63;1.50;;;20.50;46.40;;;;;;4993816;28;20394;-70
2021/05/08 11:38:43;;;;;;;4.35;1.50;;;20.50;48.40;;;;;;5011253;28;20060;-71
2021/05/08 11:41:21;;;;;;;1.35;1.20;;;20.60;48.40;;;;;;5010568;28;20038;-72
2021/05/08 11:43:54;;;;;;;1.48;1.20;;;20.60;48.40;;;;;;4993610;28;20033;-69
2021/05/08 11:46:24;;;;;;;1.10;0.95;;;20.70;45.10;;;;;;4992230;28;20061;-72
2021/05/08 11:48:50;;;;;;;1.85;0.90;;;20.60;45.00;;;;;;5010842;28;20029;-69
2021/05/08 11:51:15;;;;;;;2.38;0.95;;;20.70;45.70;;;;;;5011256;28;20042;-70
2021/05/08 11:53:41;;;;;;;1.20;1.10;;;20.80;45.10;;;;;;5011107;28;20053;-71
2021/05/08 11:56:07;;;;;;;1.10;1.00;;;20.90;45.00;;;;;;4981603;28;20027;-72
2021/05/08 11:58:33;;;;;;;1.45;0.98;;;20.90;41.10;;;;;;4974247;28;20046;-72
2021/05/08 12:00:59;;;;;;;1.23;1.10;;;20.80;40.00;;;;;;4991159;28;20041;-71
2021/05/08 12:03:25;;;;;;;1.88;0.98;;;20.70;40.00;;;;;;4991823;28;20030;-71
2021/05/08 12:05:52;;;;;;;1.95;0.80;;;20.60;40.60;;;;;;4991369;28;20058;-67
2021/05/08 12:08:21;;;;;;;3.10;1.42;;;20.60;40.20;;;;;;4991523;28;20052;-72
2021/05/08 12:10:47;;;;;;;0.95;0.90;;;20.90;34.20;;;;;;4990975;28;20156;-71
2021/05/08 12:13:13;;;;;;;1.33;1.23;;;21.10;33.20;;;;;;4992865;28;20475;-72
2021/05/08 12:15:50;;;;;;;4.53;1.20;;;21.30;33.80;;;;;;4996755;28;20026;-71
2021/05/08 12:18:18;;;;;;;1.77;0.90;;;21.90;42.40;;;;;;4992389;28;20030;-73
2021/05/08 12:20:47;;;;;;;2.45;1.30;;;22.10;32.30;;;;;;5011753;28;20030;-72
2021/05/08 12:23:23;;;;;;;1.38;1.15;;;22.20;32.00;;;;;;4995222;28;20529;-72
2021/05/08 12:26:09;;;;;;;1.73;1.20;;;22.30;31.90;;;;;;5005724;28;20038;-72
2021/05/08 12:28:37;;;;;;;3.85;0.88;;;22.30;33.00;;;;;;4995345;28;20137;-72
2021/05/08 12:31:22;;;;;;;1.45;1.00;;;22.10;32.10;;;;;;5000318;28;20030;-71
2021/05/08 12:33:50;;;;;;;0.88;0.80;;;21.90;32.00;;;;;;5014008;28;20030;-72
2021/05/08 12:36:19;;;;;;;2.35;1.13;;;21.70;32.60;;;;;;5012380;28;20076;-72
2021/05/08 12:38:47;;;;;;;3.05;1.02;;;21.60;32.80;;;;;;5014553;28;20030;-71
2021/05/08 12:41:49;;;;;;;1.17;1.00;;;21.50;33.40;;;;;;4987113;28;20050;-72
2021/05/08 12:44:15;;;;;;;1.70;1.15;;;21.50;33.20;;;;;;4967202;28;20038;-71
2021/05/08 12:47:15;;;;;;;2.35;1.00;;;21.40;32.90;;;;;;4994777;28;20030;-72
2021/05/08 12:50:03;;;;;;;1.27;0.95;;;21.40;33.50;;;;;;4991287;28;20062;-71
2021/05/08 12:52:29;;;;;;;2.03;1.35;;;21.10;33.30;;;;;;4994344;28;20073;-71
2021/05/08 12:54:56;;;;;;;1.80;1.08;;;21.00;34.00;;;;;;4994007;28;20034;-71
2021/05/08 12:57:26;;;;;;;1.80;1.10;;;20.80;34.00;;;;;;4994712;28;20076;-70
2021/05/08 13:00:05;;;;;;;1.40;0.90;;;20.60;34.70;;;;;;4960946;28;20038;-71